.
WxDataArchive / Data Records for 2016-01-13
2016-01-12 January 2016 2016-01-14

Data Records for Wednesday, 13 January 2016

Time	Temp	Chill	HIndex	Humid	Dewpt	 Wind 	HiWind	WindDir	Rain 	Barom
-----	----	-----	------	-----	-----	------	------	-------	-----	-----
00:00	6.9	6.9	6.9	72	-0.2	1	4	248	0.00	30.179 
00:05	6.9	6.9	6.9	72	-0.2	0	2	248	0.00	30.179 
00:10	6.9	6.9	6.9	72	-0.2	1	4	270	0.00	30.179 
00:15	6.9	6.9	6.9	72	-0.2	1	3	248	0.00	30.178 
00:20	6.9	6.9	6.9	72	-0.2	1	4	248	0.00	30.178 
00:25	6.9	6.9	6.9	72	-0.2	1	3	248	0.00	30.178 
00:30	6.9	6.9	6.9	72	-0.2	1	4	248	0.00	30.183 
00:35	6.9	6.9	6.9	72	-0.2	0	3	248	0.00	30.183 
00:40	6.9	6.9	6.9	72	-0.2	1	3	248	0.00	30.183 
00:45	7.0	7.0	7.0	71	-0.4	1	4	248	0.00	30.184 
00:50	7.0	7.0	7.0	71	-0.4	0	3	248	0.00	30.184 
00:55	7.0	7.0	7.0	71	-0.4	0	3	248	0.00	30.184 
01:00	7.0	7.0	7.0	71	-0.4	0	2	248	0.00	30.180 
01:05	7.0	7.0	7.0	71	-0.4	0	2	248	0.00	30.180 
01:10	7.0	7.0	7.0	71	-0.4	0	2	248	0.00	30.180 
01:15	6.9	6.9	6.9	71	-0.5	0	2	248	0.00	30.178 
01:20	6.7	6.7	6.7	71	-0.7	0	1	248	0.00	30.178 
01:25	6.7	6.7	6.7	71	-0.7	0	1	248	0.00	30.178 
01:30	6.5	6.5	6.5	71	-0.9	0	2	248	0.00	30.188 
01:35	6.5	6.5	6.5	71	-0.9	0	1	248	0.00	30.188 
01:40	6.3	6.3	6.3	71	-1.1	0	2	248	0.00	30.188 
01:45	6.3	6.3	6.3	71	-1.1	0	1	248	0.00	30.191 
01:50	6.3	6.3	6.3	71	-1.1	0	2	248	0.00	30.191 
01:55	6.3	6.3	6.3	71	-1.1	0	2	248	0.00	30.191 
02:00	6.3	6.3	6.3	71	-1.1	1	4	248	0.00	30.196 
02:05	6.3	6.3	6.3	71	-1.1	0	2	248	0.00	30.196 
02:10	6.3	6.3	6.3	71	-1.1	0	2	248	0.00	30.196 
02:15	6.1	6.1	6.1	71	-1.3	0	2	248	0.00	30.198 
02:20	6.1	6.1	6.1	71	-1.3	0	1	248	0.00	30.198 
02:25	6.0	6.0	6.0	71	-1.3	0	2	248	0.00	30.198 
02:30	6.0	6.0	6.0	71	-1.3	0	1	248	0.00	30.206 
02:35	6.0	6.0	6.0	71	-1.3	0	2	248	0.00	30.206 
02:40	6.0	6.0	6.0	71	-1.3	0	2	248	0.00	30.206 
02:45	6.0	6.0	6.0	71	-1.3	0	3	248	0.00	30.209 
02:50	6.0	6.0	6.0	71	-1.3	0	3	248	0.00	30.209 
02:55	6.0	6.0	6.0	71	-1.3	0	2	248	0.00	30.209 
03:00	6.0	6.0	6.0	71	-1.3	1	3	248	0.00	30.212 
03:05	5.8	5.8	5.8	71	-1.5	1	4	248	0.00	30.212 
03:10	5.8	5.8	5.8	71	-1.5	0	2	248	0.00	30.212 
03:15	5.8	5.8	5.8	71	-1.5	0	1	248	0.00	30.208 
03:20	5.8	5.8	5.8	71	-1.5	0	1	248	0.00	30.208 
03:25	5.8	5.8	5.8	70	-1.8	0	2	248	0.00	30.208 
03:30	5.8	5.8	5.8	70	-1.8	0	1	248	0.00	30.211 
03:35	5.6	5.6	5.6	70	-2.0	0	2	248	0.00	30.211 
03:40	5.6	5.6	5.6	70	-2.0	0	2	248	0.00	30.211 
03:45	5.4	5.4	5.4	70	-2.2	0	2	248	0.00	30.215 
03:50	5.4	5.4	5.4	70	-2.2	0	2	248	0.00	30.215 
03:55	5.2	5.2	5.2	70	-2.4	0	2	248	0.00	30.215 
04:00	5.2	5.2	5.2	70	-2.4	0	2	248	0.00	30.213 
04:05	5.0	5.0	5.0	70	-2.6	0	2	248	0.00	30.213 
04:10	5.0	5.0	5.0	70	-2.6	0	1	248	0.00	30.213 
04:15	4.8	4.8	4.8	70	-2.8	0	2	248	0.00	30.217 
04:20	4.7	4.7	4.7	70	-2.9	0	1	248	0.00	30.217 
04:25	4.5	4.5	4.5	70	-3.1	0	1	248	0.00	30.217 
04:30	4.5	4.5	4.5	70	-3.1	0	2	248	0.00	30.214 
04:35	4.3	4.3	4.3	70	-3.3	0	2	248	0.00	30.214 
04:40	4.1	4.1	4.1	70	-3.5	0	2	248	0.00	30.214 
04:45	3.9	3.9	3.9	70	-3.7	0	1	248	0.00	30.211 
04:50	3.7	3.7	3.7	70	-3.9	0	0	---	0.00	30.211 
04:55	3.5	3.5	3.5	71	-3.8	0	1	248	0.00	30.211 
05:00	3.4	3.4	3.4	71	-3.9	0	1	248	0.00	30.212 
05:05	3.4	3.4	3.4	71	-3.9	0	1	248	0.00	30.212 
05:10	3.2	3.2	3.2	71	-4.0	0	1	248	0.00	30.212 
05:15	3.0	3.0	3.0	72	-3.9	0	1	248	0.00	30.213 
05:20	3.0	3.0	3.0	72	-3.9	0	0	---	0.00	30.213 
05:25	3.0	3.0	3.0	72	-3.9	0	1	248	0.00	30.213 
05:30	2.8	2.8	2.8	72	-4.1	0	1	248	0.00	30.215 
05:35	2.8	2.8	2.8	72	-4.1	0	1	248	0.00	30.215 
05:40	2.6	2.6	2.6	72	-4.3	0	2	248	0.00	30.215 
05:45	2.6	2.6	2.6	73	-4.0	0	2	248	0.00	30.217 
05:50	2.6	2.6	2.6	73	-4.0	0	2	248	0.00	30.217 
05:55	2.6	2.6	2.6	73	-4.0	0	1	248	0.00	30.217 
06:00	2.6	2.6	2.6	73	-4.0	0	3	248	0.00	30.217 
06:05	2.6	2.6	2.6	73	-4.0	0	3	248	0.00	30.217 
06:10	2.6	2.6	2.6	73	-4.0	0	2	248	0.00	30.217 
06:15	2.4	2.4	2.4	73	-4.2	0	2	248	0.00	30.218 
06:20	2.4	2.4	2.4	73	-4.2	0	2	248	0.00	30.218 
06:25	2.4	2.4	2.4	73	-4.2	0	1	248	0.00	30.218 
06:30	2.4	2.4	2.4	73	-4.2	0	1	248	0.00	30.216 
06:35	2.4	2.4	2.4	73	-4.2	0	1	248	0.00	30.216 
06:40	2.4	2.4	2.4	73	-4.2	0	2	248	0.00	30.216 
06:45	2.2	2.2	2.2	73	-4.4	0	1	248	0.00	30.215 
06:50	2.2	2.2	2.2	73	-4.4	0	1	248	0.00	30.215 
06:55	2.2	2.2	2.2	73	-4.4	0	1	248	0.00	30.215 
07:00	2.2	2.2	2.2	73	-4.4	0	1	248	0.00	30.216 
07:05	2.2	2.2	2.2	73	-4.4	0	1	248	0.00	30.216 
07:10	2.2	2.2	2.2	73	-4.4	0	1	248	0.00	30.216 
07:15	2.0	2.0	2.0	73	-4.6	0	0	---	0.00	30.214 
07:20	2.0	2.0	2.0	73	-4.6	0	1	248	0.00	30.214 
07:25	2.0	2.0	2.0	73	-4.6	0	1	248	0.00	30.214 
07:30	2.0	2.0	2.0	74	-4.3	0	1	248	0.00	30.212 
07:35	2.0	2.0	2.0	74	-4.3	0	1	248	0.00	30.212 
07:40	2.0	2.0	2.0	74	-4.3	0	1	248	0.00	30.212 
07:45	2.0	2.0	2.0	74	-4.3	0	1	248	0.00	30.215 
07:50	2.0	2.0	2.0	74	-4.3	0	0	---	0.00	30.215 
07:55	2.0	2.0	2.0	74	-4.3	0	1	248	0.00	30.215 
08:00	2.0	2.0	2.0	74	-4.3	0	1	248	0.00	30.210 
08:05	1.8	1.8	1.8	74	-4.5	0	0	---	0.00	30.210 
08:10	1.8	1.8	1.8	74	-4.5	0	1	248	0.00	30.210 
08:15	1.8	1.8	1.8	74	-4.5	0	1	248	0.00	30.210 
08:20	1.8	1.8	1.8	74	-4.5	0	1	248	0.00	30.210 
08:25	1.8	1.8	1.8	74	-4.5	0	1	248	0.00	30.210 
08:30	1.8	1.8	1.8	74	-4.5	0	2	248	0.00	30.206 
08:35	2.0	2.0	2.0	75	-4.1	0	0	---	0.00	30.206 
08:40	2.0	2.0	2.0	74	-4.3	0	1	248	0.00	30.206 
08:45	2.2	2.2	2.2	74	-4.2	0	2	248	0.00	30.203 
08:50	2.2	2.2	2.2	74	-4.2	0	2	248	0.00	30.203 
08:55	2.2	2.2	2.2	74	-4.2	0	2	248	0.00	30.203 
09:00	2.4	2.4	2.4	74	-4.0	0	2	248	0.00	30.200 
09:05	2.6	2.6	2.6	74	-3.8	0	1	248	0.00	30.200 
09:10	2.8	2.8	2.8	74	-3.6	0	1	248	0.00	30.200 
09:15	3.0	3.0	3.0	74	-3.4	0	1	248	0.00	30.202 
09:20	3.0	3.0	3.0	73	-3.7	0	1	248	0.00	30.202 
09:25	3.2	3.2	3.2	73	-3.5	0	1	248	0.00	30.202 
09:30	3.5	3.5	3.5	73	-3.2	0	1	202	0.00	30.197 
09:35	3.9	3.9	3.9	73	-2.8	0	1	202	0.00	30.197 
09:40	4.1	4.1	4.1	73	-2.6	0	2	202	0.00	30.197 
09:45	4.5	4.5	4.5	72	-2.5	0	1	202	0.00	30.199 
09:50	4.8	4.8	4.8	71	-2.5	0	2	202	0.00	30.199 
09:55	5.0	5.0	5.0	70	-2.6	0	3	225	0.00	30.199 
10:00	5.2	5.2	5.2	70	-2.4	0	2	225	0.00	30.204 
10:05	5.4	5.4	5.4	69	-2.5	0	2	225	0.00	30.204 
10:10	5.6	5.6	5.6	68	-2.6	1	4	248	0.00	30.204 
10:15	5.8	5.8	5.8	68	-2.4	0	3	248	0.00	30.204 
10:20	5.8	5.8	5.8	67	-2.8	1	4	248	0.00	30.204 
10:25	6.0	6.0	6.0	67	-2.6	0	2	248	0.00	30.204 
10:30	6.1	6.1	6.1	67	-2.5	0	3	248	0.00	30.201 
10:35	6.3	6.3	6.3	66	-2.6	1	3	248	0.00	30.201 
10:40	6.7	6.7	6.7	66	-2.2	0	2	248	0.00	30.201 
10:45	7.0	7.0	7.0	65	-2.2	0	3	292	0.00	30.192 
10:50	7.4	7.4	7.4	64	-2.2	0	1	292	0.00	30.192 
10:55	7.7	7.7	7.7	63	-2.2	0	1	292	0.00	30.192 
11:00	8.1	8.1	8.1	63	-1.9	0	2	292	0.00	30.183 
11:05	8.4	8.4	8.4	62	-1.9	0	0	---	0.00	30.183 
11:10	9.0	9.0	9.0	62	-1.3	0	1	292	0.00	30.183 
11:15	9.3	9.3	9.3	60	-1.7	0	3	270	0.00	30.183 
11:20	9.7	9.7	9.7	58	-2.1	1	4	248	0.00	30.183 
11:25	10.0	10.0	10.0	57	-2.2	0	3	270	0.00	30.183 
11:30	10.0	10.0	10.0	57	-2.2	0	2	270	0.00	30.187 
11:35	10.0	10.0	10.0	57	-2.2	0	2	270	0.00	30.187 
11:40	10.2	10.2	10.2	58	-1.6	0	2	270	0.00	30.187 
11:45	10.4	10.4	10.4	58	-1.4	0	3	338	0.00	30.183 
11:50	10.5	10.5	10.5	58	-1.3	0	1	338	0.00	30.183 
11:55	10.7	10.7	10.7	58	-1.1	0	2	270	0.00	30.183 
12:00	10.7	10.7	10.7	57	-1.5	0	4	248	0.00	30.179 
12:05	11.2	11.2	11.2	59	-0.3	0	1	248	0.00	30.179 
12:10	11.6	11.6	11.6	57	-0.6	0	2	248	0.00	30.179 
12:15	12.1	12.1	12.1	56	-0.6	0	2	248	0.00	30.167 
12:20	12.3	12.3	12.3	55	-0.7	0	3	248	0.00	30.167 
12:25	12.4	12.4	12.4	55	-0.7	0	3	315	0.00	30.167 
12:30	12.3	12.3	12.3	54	-1.1	1	6	248	0.00	30.155 
12:35	12.3	12.3	12.3	54	-1.1	0	3	248	0.00	30.155 
12:40	12.3	12.3	12.3	55	-0.7	0	2	248	0.00	30.155 
12:45	12.3	12.3	12.3	55	-0.7	0	3	248	0.00	30.150 
12:50	12.3	12.3	12.3	55	-0.7	1	2	248	0.00	30.150 
12:55	12.3	12.3	12.3	56	-0.4	0	2	248	0.00	30.150 
13:00	12.3	12.3	12.3	56	-0.4	0	3	248	0.00	30.132 
13:05	12.4	12.4	12.4	57	0.1	0	1	248	0.00	30.132 
13:10	12.4	12.4	12.4	56	-0.3	1	4	248	0.00	30.132 
13:15	12.4	12.4	12.4	56	-0.3	0	1	248	0.00	30.128 
13:20	12.6	12.6	12.6	56	-0.1	0	2	248	0.00	30.128 
13:25	12.4	12.4	12.4	57	0.1	0	1	248	0.00	30.128 
13:30	12.6	12.6	12.6	57	0.3	0	2	248	0.00	30.102 
13:35	12.3	12.3	12.3	57	0.0	0	2	248	0.00	30.102 
13:40	12.3	12.3	12.3	57	0.0	0	4	248	0.00	30.102 
13:45	12.3	12.3	12.3	57	0.0	0	2	248	0.00	30.098 
13:50	12.3	12.3	12.3	57	0.0	0	3	248	0.00	30.098 
13:55	12.3	12.3	12.3	57	0.0	0	3	112	0.00	30.098 
14:00	12.1	12.1	12.1	58	0.2	1	4	90	0.00	30.077 
14:05	12.1	12.1	12.1	58	0.2	0	2	90	0.00	30.077 
14:10	12.3	12.3	12.3	57	0.0	0	3	292	0.00	30.077 
14:15	12.4	12.4	12.4	58	0.5	0	1	292	0.00	30.071 
14:20	12.6	12.6	12.6	58	0.7	0	2	202	0.00	30.071 
14:25	12.8	12.8	12.8	58	0.8	0	2	225	0.00	30.071 
14:30	12.8	12.8	12.8	58	0.8	0	1	225	0.00	30.074 
14:35	12.8	12.8	12.8	59	1.2	0	3	225	0.00	30.074 
14:40	12.8	12.8	12.8	60	1.6	0	1	225	0.00	30.074 
14:45	12.8	12.8	12.8	60	1.6	0	1	225	0.00	30.068 
14:50	12.8	12.8	12.8	61	1.9	0	2	225	0.00	30.068 
14:55	12.8	12.8	12.8	62	2.3	0	1	225	0.00	30.068 
15:00	12.9	12.9	12.9	63	2.7	0	3	225	0.00	30.059 
15:05	12.8	12.8	12.8	64	3.0	0	2	225	0.00	30.059 
15:10	12.6	12.6	12.6	64	2.8	0	2	270	0.00	30.059 
15:15	12.6	12.6	12.6	65	3.1	0	2	270	0.00	30.054 
15:20	12.4	12.4	12.4	66	3.2	0	2	270	0.00	30.054 
15:25	12.6	12.6	12.6	68	4.1	0	1	270	0.00	30.054 
15:30	12.6	12.6	12.6	68	4.1	0	2	270	0.00	30.049 
15:35	12.6	12.6	12.6	69	4.4	0	2	202	0.00	30.049 
15:40	12.6	12.6	12.6	69	4.4	0	2	225	0.00	30.049 
15:45	12.8	12.8	12.8	70	4.9	0	1	225	0.00	30.043 
15:50	12.8	12.8	12.8	71	5.2	0	1	225	0.00	30.043 
15:55	12.9	12.9	12.9	72	5.6	0	2	180	0.00	30.043 
16:00	12.9	12.9	12.9	73	5.9	0	3	112	0.00	30.025 
16:05	12.9	12.9	12.9	74	6.2	0	2	112	0.00	30.025 
16:10	12.9	12.9	12.9	75	6.5	0	2	112	0.00	30.025 
16:15	12.9	12.9	12.9	75	6.5	0	1	112	0.00	30.027 
16:20	12.9	12.9	12.9	75	6.5	0	1	112	0.00	30.027 
16:25	13.1	13.1	13.1	76	7.0	0	2	112	0.00	30.027 
16:30	13.1	13.1	13.1	77	7.3	1	3	112	0.00	30.018 
16:35	13.1	13.1	13.1	77	7.3	0	2	112	0.00	30.018 
16:40	13.3	13.3	13.3	78	7.7	0	3	112	0.00	30.018 
16:45	13.3	13.3	13.3	78	7.7	1	6	112	0.00	30.004 
16:50	13.3	13.3	13.3	78	7.7	1	5	112	0.00	30.004 
16:55	13.3	13.3	13.3	79	8.0	1	4	90	0.00	30.004 
17:00	13.3	13.3	13.3	79	8.0	1	3	90	0.00	29.993 
17:05	13.3	13.3	13.3	79	8.0	0	2	90	0.00	29.993 
17:10	13.3	13.3	13.3	79	8.0	0	3	90	0.00	29.993 
17:15	13.5	13.5	13.5	79	8.2	1	3	90	0.00	29.991 
17:20	13.5	13.5	13.5	79	8.2	0	3	90	0.00	29.991 
17:25	13.5	13.5	13.5	79	8.2	0	3	90	0.00	29.991 
17:30	13.5	13.5	13.5	79	8.2	0	2	90	0.00	29.992 
17:35	13.5	13.5	13.5	79	8.2	1	3	90	0.00	29.992 
17:40	13.6	13.6	13.6	79	8.3	1	3	90	0.00	29.992 
17:45	13.6	13.6	13.6	79	8.3	0	2	90	0.00	29.989 
17:50	13.6	13.6	13.6	78	8.0	1	3	90	0.00	29.989 
17:55	13.8	13.8	13.8	79	8.5	1	3	90	0.00	29.989 
18:00	13.8	13.8	13.8	79	8.5	0	1	90	0.00	29.991 
18:05	14.0	14.0	14.0	79	8.7	0	2	90	0.00	29.991 
18:10	14.0	14.0	14.0	79	8.7	0	2	90	0.00	29.991 
18:15	14.1	14.1	14.1	79	8.8	0	1	90	0.00	29.993 
18:20	14.1	14.1	14.1	79	8.8	0	2	90	0.00	29.993 
18:25	14.1	14.1	14.1	79	8.8	0	1	90	0.00	29.993 
18:30	14.3	14.3	14.3	80	9.3	0	2	90	0.00	29.991 
18:35	14.3	14.3	14.3	81	9.6	0	2	90	0.00	29.991 
18:40	14.3	14.3	14.3	81	9.6	0	1	90	0.00	29.991 
18:45	14.3	14.3	14.3	82	9.8	0	1	90	0.00	29.981 
18:50	14.3	14.3	14.3	83	10.1	0	2	90	0.00	29.981 
18:55	14.3	14.3	14.3	83	10.1	0	1	90	0.00	29.981 
19:00	14.4	14.4	14.4	83	10.2	0	1	90	0.00	29.988 
19:05	14.4	14.4	14.4	83	10.2	0	2	90	0.00	29.988 
19:10	14.6	14.6	14.6	83	10.4	0	1	90	0.00	29.988 
19:15	14.6	14.6	14.6	83	10.4	0	2	90	0.00	29.988 
19:20	14.8	14.8	14.8	83	10.6	0	1	90	0.00	29.988 
19:25	14.8	14.8	14.8	83	10.6	0	3	90	0.00	29.988 
19:30	14.9	14.9	14.9	83	10.7	0	2	90	0.00	29.976 
19:35	15.1	15.1	15.1	83	10.9	0	1	90	0.00	29.976 
19:40	15.2	15.2	15.2	82	10.7	0	2	90	0.00	29.976 
19:45	15.4	15.4	15.4	82	10.9	0	2	90	0.00	29.957 
19:50	15.6	15.6	15.6	82	11.1	0	3	90	0.00	29.957 
19:55	15.6	15.6	15.6	81	10.8	0	3	90	0.00	29.957 
20:00	15.9	15.9	15.9	81	11.1	0	1	90	0.00	29.947 
20:05	16.1	16.1	16.1	80	11.0	1	4	90	0.00	29.947 
20:10	16.2	16.2	16.2	80	11.1	0	2	90	0.00	29.947 
20:15	16.4	16.4	16.4	79	11.0	0	2	90	0.00	29.945 
20:20	16.5	16.5	16.5	79	11.1	0	2	90	0.00	29.945 
20:25	16.7	16.7	16.7	78	11.1	0	2	90	0.00	29.945 
20:30	17.0	17.0	17.0	77	11.1	1	3	112	0.00	29.942 
20:35	17.2	17.2	17.2	77	11.3	0	2	112	0.00	29.942 
20:40	17.5	17.5	17.5	76	11.3	0	2	225	0.00	29.942 
20:45	17.8	17.8	17.8	75	11.2	0	2	225	0.00	29.923 
20:50	18.0	18.0	18.0	75	11.4	0	2	225	0.00	29.923 
20:55	18.1	18.1	18.1	74	11.2	0	3	225	0.00	29.923 
21:00	18.4	18.4	18.4	74	11.5	0	3	225	0.00	29.927 
21:05	18.6	18.6	18.6	73	11.4	0	2	248	0.00	29.927 
21:10	18.8	18.8	18.8	73	11.6	0	2	248	0.00	29.927 
21:15	18.9	18.9	18.9	73	11.7	0	2	248	0.00	29.920 
21:20	18.9	18.9	18.9	73	11.7	0	3	248	0.00	29.920 
21:25	19.1	19.1	19.1	73	11.9	0	2	248	0.00	29.920 
21:30	19.2	19.2	19.2	73	12.0	0	3	248	0.00	29.905 
21:35	19.5	19.5	19.5	73	12.3	1	9	248	0.00	29.905 
21:40	19.7	19.7	19.7	73	12.5	0	3	248	0.00	29.905 
21:45	19.7	19.7	19.7	73	12.5	0	2	225	0.00	29.903 
21:50	19.9	19.9	19.9	73	12.7	1	4	225	0.00	29.903 
21:55	20.0	20.0	20.0	73	12.8	1	3	248	0.00	29.903 
22:00	20.2	20.2	20.2	73	13.0	0	2	248	0.00	29.886 
22:05	20.3	20.3	20.3	72	12.7	0	3	248	0.00	29.886 
22:10	20.3	20.3	20.3	72	12.7	1	4	248	0.00	29.886 
22:15	20.3	20.3	20.3	72	12.7	0	3	248	0.00	29.869 
22:20	20.3	20.3	20.3	72	12.7	1	4	248	0.00	29.869 
22:25	20.3	20.3	20.3	72	12.7	1	4	248	0.00	29.869 
22:30	20.5	20.5	20.5	73	13.2	1	3	248	0.00	29.872 
22:35	20.5	20.5	20.5	73	13.2	1	3	248	0.00	29.872 
22:40	20.5	20.5	20.5	73	13.2	0	2	248	0.00	29.872 
22:45	20.5	20.5	20.5	73	13.2	1	4	248	0.00	29.877 
22:50	20.6	20.6	20.6	73	13.3	0	2	248	0.00	29.877 
22:55	20.6	20.6	20.6	73	13.3	0	3	248	0.00	29.877 
23:00	20.8	20.8	20.8	73	13.5	0	2	248	0.00	29.866 
23:05	20.8	20.8	20.8	73	13.5	0	3	248	0.00	29.866 
23:10	21.1	21.1	21.1	74	14.1	1	5	248	0.00	29.866 
23:15	21.3	21.3	21.3	74	14.3	1	3	248	0.00	29.860 
23:20	21.4	21.4	21.4	74	14.4	1	4	248	0.00	29.860 
23:25	21.8	21.8	21.8	74	14.8	1	3	225	0.00	29.860 
23:30	21.9	21.9	21.9	74	14.9	0	1	225	0.00	29.860 
23:35	22.1	22.1	22.1	74	15.1	1	3	225	0.00	29.860 
23:40	22.2	22.2	22.2	74	15.2	1	3	225	0.00	29.860 
23:45	22.2	22.2	22.2	74	15.2	1	3	225	0.00	29.864 
23:50	22.4	22.4	22.4	73	15.1	1	3	248	0.00	29.864 
23:55	22.5	22.5	22.5	73	15.2	1	5	225	0.00	29.864 

CoCoRaHS
IN-AL-39
A2 Web Hosting
Creative Commons License
GoDaddy
search engine by freefind advanced

loaded 2018-11-19 19:36:19 • last modified 2010-11-18 10:43:29
Privacy PolicyDisclaimer
• wx.awcolley.com is powered by PmWiki v.2002016 •
• all content (unless otherwise noted) © 2018 A W Colley